sensor_id;sensor_type;location;lat;lon;timestamp;temperature;humidity
66623;DHT22;53493;50.888;20.650;2022-07-24T00:07:15;23.27;71
66623;DHT22;53493;50.888;20.650;2022-07-24T00:14:17;23.27;71
66623;DHT22;53493;50.888;20.650;2022-07-24T00:21:09;23.27;71
66623;DHT22;53493;50.888;20.650;2022-07-24T00:35:18;23;71
66623;DHT22;53493;50.888;20.650;2022-07-24T01:07:18;22;71
66623;DHT22;53493;50.888;20.650;2022-07-24T01:14:17;22;71
66623;DHT22;53493;50.888;20.650;2022-07-24T01:21:04;22;71
66623;DHT22;53493;50.888;20.650;2022-07-24T01:28:02;22;71
66623;DHT22;53493;50.888;20.650;2022-07-24T01:42:05;25;80
66623;DHT22;53493;50.888;20.650;2022-07-24T01:49:03;25;80
66623;DHT22;53493;50.888;20.650;2022-07-24T01:56:06;25;80
66623;DHT22;53493;50.888;20.650;2022-07-24T02:00:24;25;80
66623;DHT22;53493;50.888;20.650;2022-07-24T02:07:02;25;85
66623;DHT22;53493;50.888;20.650;2022-07-24T02:14:06;25;85
66623;DHT22;53493;50.888;20.650;2022-07-24T02:21:17;25;85
66623;DHT22;53493;50.888;20.650;2022-07-24T02:28:02;25;85
66623;DHT22;53493;50.888;20.650;2022-07-24T02:35:19;24;88
66623;DHT22;53493;50.888;20.650;2022-07-24T02:42:13;24;88
66623;DHT22;53493;50.888;20.650;2022-07-24T02:49:18;24;88
66623;DHT22;53493;50.888;20.650;2022-07-24T02:56:09;24;88
66623;DHT22;53493;50.888;20.650;2022-07-24T03:00:16;24;88
66623;DHT22;53493;50.888;20.650;2022-07-24T03:07:04;25;79
66623;DHT22;53493;50.888;20.650;2022-07-24T03:14:03;25;79
66623;DHT22;53493;50.888;20.650;2022-07-24T03:21:02;25;79
66623;DHT22;53493;50.888;20.650;2022-07-24T03:28:19;25;79
66623;DHT22;53493;50.888;20.650;2022-07-24T03:35:19;25;82
66623;DHT22;53493;50.888;20.650;2022-07-24T03:42:04;25;82
66623;DHT22;53493;50.888;20.650;2022-07-24T03:49:06;25;82
66623;DHT22;53493;50.888;20.650;2022-07-24T03:56:23;25;82
66623;DHT22;53493;50.888;20.650;2022-07-24T04:07:18;24;84
66623;DHT22;53493;50.888;20.650;2022-07-24T04:14:04;24;84
66623;DHT22;53493;50.888;20.650;2022-07-24T04:35:16;24;86
66623;DHT22;53493;50.888;20.650;2022-07-24T04:42:06;24;86
66623;DHT22;53493;50.888;20.650;2022-07-24T04:49:19;24;86
66623;DHT22;53493;50.888;20.650;2022-07-24T04:56:20;24;86
66623;DHT22;53493;50.888;20.650;2022-07-24T05:00:13;24;86
66623;DHT22;53493;50.888;20.650;2022-07-24T05:07:03;24;86
66623;DHT22;53493;50.888;20.650;2022-07-24T05:14:15;24;86
66623;DHT22;53493;50.888;20.650;2022-07-24T05:21:03;24;86
66623;DHT22;53493;50.888;20.650;2022-07-24T05:28:05;24;86
66623;DHT22;53493;50.888;20.650;2022-07-24T05:35:10;23;87
66623;DHT22;53493;50.888;20.650;2022-07-24T05:42:17;23;87
66623;DHT22;53493;50.888;20.650;2022-07-24T05:49:06;23;87
66623;DHT22;53493;50.888;20.650;2022-07-24T05:56:18;23;87
66623;DHT22;53493;50.888;20.650;2022-07-24T06:00:09;23;87
66623;DHT22;53493;50.888;20.650;2022-07-24T06:07:02;23;87
